Time;durP1;ratioP1;P1;durP2;ratioP2;P2;SDS_P1;SDS_P2;PMS_P1;PMS_P2;Temp;Humidity;BMP_temperature;BMP_pressure;BME280_temperature;BME280_humidity;BME280_pressure;Samples;Min_cycle;Max_cycle;Signal;HPM_P1;HPM_P2
2022/11/21 00:01:42;;;;;;;2.20;1.07;;;9.00;99.90;;;;;;5019255;28;20208;-29
2022/11/21 00:04:09;;;;;;;5.27;0.87;;;9.10;99.90;;;;;;5006816;28;20216;-30
2022/11/21 00:06:39;;;;;;;2.50;0.93;;;9.00;99.90;;;;;;5004534;28;20299;-29
2022/11/21 00:09:08;;;;;;;2.70;1.00;;;9.00;99.90;;;;;;5002695;28;20209;-29
2022/11/21 00:11:40;;;;;;;1.80;0.80;;;9.10;99.90;;;;;;4995469;28;20240;-29
2022/11/21 00:14:09;;;;;;;4.63;1.13;;;9.10;99.90;;;;;;5000185;28;20677;-29
2022/11/21 00:16:37;;;;;;;2.30;0.90;;;9.00;99.90;;;;;;4995948;28;20312;-29
2022/11/21 00:19:04;;;;;;;3.23;1.20;;;9.00;99.90;;;;;;5005100;28;20548;-29
2022/11/21 00:21:33;;;;;;;4.33;0.83;;;9.00;99.90;;;;;;5003208;28;20218;-30
2022/11/21 00:24:00;;;;;;;2.30;0.70;;;9.10;99.90;;;;;;5010768;28;20205;-30
2022/11/21 00:26:30;;;;;;;2.63;1.13;;;9.10;99.90;;;;;;5022490;28;20723;-29
2022/11/21 00:28:57;;;;;;;2.77;1.07;;;9.10;99.90;;;;;;5001325;28;20217;-29
2022/11/21 00:31:24;;;;;;;2.83;1.13;;;9.10;99.90;;;;;;5007067;28;20216;-29
2022/11/21 00:33:52;;;;;;;2.83;1.23;;;9.00;99.90;;;;;;5024195;28;20224;-30
2022/11/21 00:36:19;;;;;;;5.00;1.30;;;9.00;99.90;;;;;;5019034;28;20228;-30
2022/11/21 00:38:46;;;;;;;3.23;1.20;;;9.00;99.90;;;;;;5012385;28;20801;-29
2022/11/21 00:41:16;;;;;;;6.00;1.50;;;9.00;99.90;;;;;;4995988;28;20635;-30
2022/11/21 00:43:43;;;;;;;5.37;1.50;;;9.10;99.90;;;;;;5026060;28;20702;-29
2022/11/21 00:46:10;;;;;;;4.57;1.80;;;9.10;99.90;;;;;;5023958;28;20248;-29
2022/11/21 00:48:37;;;;;;;4.00;2.03;;;9.00;99.90;;;;;;5006307;28;20326;-29
2022/11/21 00:51:04;;;;;;;4.07;1.53;;;9.00;99.90;;;;;;5004120;28;20228;-30
2022/11/21 00:53:32;;;;;;;6.07;2.20;;;9.00;99.90;;;;;;5013254;28;20221;-29
2022/11/21 00:55:59;;;;;;;4.63;2.40;;;8.90;99.90;;;;;;5004951;28;20300;-29
2022/11/21 00:58:27;;;;;;;9.87;3.10;;;8.90;99.90;;;;;;5024249;28;20266;-29
2022/11/21 01:01:07;;;;;;;8.67;3.17;;;8.90;99.90;;;;;;5005969;28;20240;-29
2022/11/21 01:03:38;;;;;;;7.33;2.87;;;8.90;99.90;;;;;;4988456;28;20252;-29
2022/11/21 01:06:08;;;;;;;6.30;2.53;;;8.90;99.90;;;;;;5018969;28;20220;-29
2022/11/21 01:08:40;;;;;;;7.80;2.83;;;8.80;99.90;;;;;;5024291;28;20287;-29
2022/11/21 01:11:10;;;;;;;8.77;2.53;;;8.80;99.90;;;;;;5017543;28;20201;-29
2022/11/21 01:13:40;;;;;;;11.93;3.00;;;8.80;99.90;;;;;;5026130;28;20299;-29
2022/11/21 01:16:17;;;;;;;9.80;3.10;;;8.80;99.90;;;;;;5026651;28;20626;-29
2022/11/21 01:18:47;;;;;;;7.73;3.30;;;8.80;99.90;;;;;;5027639;28;20235;-29
2022/11/21 01:21:18;;;;;;;6.80;2.97;;;8.70;99.90;;;;;;5032529;28;20245;-29
2022/11/21 01:23:45;;;;;;;8.03;3.53;;;8.70;99.90;;;;;;5000930;28;20320;-29
2022/11/21 01:26:19;;;;;;;9.10;3.00;;;8.70;99.90;;;;;;5007613;28;20252;-29
2022/11/21 01:28:47;;;;;;;10.17;2.70;;;8.70;99.90;;;;;;5027232;28;20734;-29
2022/11/21 01:31:19;;;;;;;8.27;2.87;;;8.70;99.90;;;;;;5023524;28;20810;-29
2022/11/21 01:33:47;;;;;;;7.63;2.80;;;8.70;99.90;;;;;;5022774;28;20466;-29
2022/11/21 01:36:25;;;;;;;10.80;3.07;;;8.70;99.90;;;;;;5006508;28;20315;-29
2022/11/21 01:38:57;;;;;;;7.17;2.77;;;8.70;99.90;;;;;;5005394;28;20587;-29
2022/11/21 01:41:28;;;;;;;6.07;2.80;;;8.60;99.90;;;;;;5009432;28;20305;-29
2022/11/21 01:43:59;;;;;;;8.50;2.73;;;8.60;99.90;;;;;;5033857;28;20201;-29
2022/11/21 01:46:26;;;;;;;5.13;2.50;;;8.60;99.90;;;;;;5017119;28;20271;-29
2022/11/21 01:49:02;;;;;;;8.43;2.97;;;8.60;99.90;;;;;;5020898;28;20314;-29
2022/11/21 01:51:41;;;;;;;9.40;2.77;;;8.50;99.90;;;;;;5015630;28;20279;-29
2022/11/21 01:54:26;;;;;;;10.03;3.30;;;8.60;99.90;;;;;;5009482;28;20556;-29
2022/11/21 01:57:08;;;;;;;9.03;2.70;;;8.60;99.90;;;;;;5015917;28;20216;-29
2022/11/21 01:59:55;;;;;;;7.33;2.23;;;8.60;99.90;;;;;;5001840;28;20214;-29
2022/11/21 02:02:31;;;;;;;8.37;2.80;;;8.50;99.90;;;;;;4989424;28;20317;-29
2022/11/21 02:05:00;;;;;;;7.77;2.67;;;8.50;99.90;;;;;;5014222;28;20223;-29
2022/11/21 02:07:37;;;;;;;7.10;2.70;;;8.60;99.90;;;;;;4980433;28;20218;-29
2022/11/21 02:10:05;;;;;;;4.13;2.10;;;8.50;99.90;;;;;;5005117;28;20209;-29
2022/11/21 02:12:37;;;;;;;10.43;2.57;;;8.60;99.90;;;;;;5002986;28;20263;-29
2022/11/21 02:15:05;;;;;;;6.33;2.53;;;8.60;99.90;;;;;;5002652;28;20214;-29
2022/11/21 02:17:35;;;;;;;7.33;3.10;;;8.60;99.90;;;;;;4988904;28;20289;-29
2022/11/21 02:20:08;;;;;;;6.87;2.43;;;8.60;99.90;;;;;;5003731;28;20284;-29
2022/11/21 02:22:53;;;;;;;8.70;2.40;;;8.50;99.90;;;;;;5004230;28;20248;-29
2022/11/21 02:25:23;;;;;;;5.93;2.40;;;8.60;99.90;;;;;;5005690;28;20267;-29
2022/11/21 02:28:01;;;;;;;6.07;2.23;;;8.50;99.90;;;;;;5005753;28;20290;-29
2022/11/21 02:30:35;;;;;;;6.97;2.67;;;8.60;99.90;;;;;;5005686;28;20201;-29
2022/11/21 02:33:07;;;;;;;6.83;2.57;;;8.60;99.90;;;;;;5015893;28;20245;-29
2022/11/21 02:35:34;;;;;;;5.50;2.30;;;8.60;99.90;;;;;;5005373;28;20304;-29
2022/11/21 02:38:21;;;;;;;8.07;2.10;;;8.60;99.90;;;;;;5002406;28;20233;-29
2022/11/21 02:41:12;;;;;;;4.87;1.87;;;8.60;99.90;;;;;;5015598;28;20209;-29
2022/11/21 02:43:50;;;;;;;3.07;1.70;;;8.60;99.90;;;;;;5032667;28;20248;-29
2022/11/21 02:46:17;;;;;;;5.20;1.90;;;8.60;99.90;;;;;;5003689;28;20262;-29
2022/11/21 02:48:46;;;;;;;9.60;2.27;;;8.60;99.90;;;;;;5001615;28;20715;-29
2022/11/21 02:51:18;;;;;;;7.90;2.37;;;8.70;99.90;;;;;;4992012;28;20206;-29
2022/11/21 02:53:50;;;;;;;4.57;1.90;;;8.70;99.90;;;;;;5004290;28;20222;-29
2022/11/21 02:56:20;;;;;;;4.10;1.87;;;8.80;99.90;;;;;;5006347;28;20296;-29
2022/11/21 02:58:49;;;;;;;3.80;1.50;;;8.80;99.90;;;;;;5014786;28;20204;-29
2022/11/21 03:01:19;;;;;;;7.43;2.00;;;8.80;99.90;;;;;;5024561;28;20528;-29
2022/11/21 03:03:48;;;;;;;4.73;1.80;;;8.80;99.90;;;;;;5015201;28;20291;-29
2022/11/21 03:06:18;;;;;;;5.73;1.83;;;8.90;99.90;;;;;;5004872;28;20307;-29
2022/11/21 03:08:48;;;;;;;5.77;1.80;;;8.90;99.90;;;;;;5003917;28;20682;-29
2022/11/21 03:11:15;;;;;;;6.50;2.20;;;8.90;99.90;;;;;;5002513;28;20217;-29
2022/11/21 03:13:45;;;;;;;5.07;1.90;;;8.90;99.90;;;;;;5011418;28;20236;-29
2022/11/21 03:16:14;;;;;;;4.73;1.73;;;8.90;99.90;;;;;;5019320;28;20230;-29
2022/11/21 03:18:44;;;;;;;5.63;2.10;;;8.90;99.90;;;;;;5014772;28;20237;-29
2022/11/21 03:21:11;;;;;;;5.63;2.20;;;9.00;99.90;;;;;;5010213;28;20765;-29
2022/11/21 03:23:38;;;;;;;5.17;2.20;;;9.00;99.90;;;;;;5011706;28;20278;-30
2022/11/21 03:26:08;;;;;;;9.27;2.53;;;9.00;99.90;;;;;;5025253;28;20635;-30
2022/11/21 03:28:37;;;;;;;9.60;2.70;;;9.00;99.90;;;;;;5023515;28;20216;-30
2022/11/21 03:31:04;;;;;;;3.77;1.80;;;9.10;99.90;;;;;;5021187;28;20208;-30
2022/11/21 03:33:33;;;;;;;7.90;2.80;;;9.10;99.90;;;;;;5013059;28;20293;-30
2022/11/21 03:36:00;;;;;;;6.20;2.30;;;9.00;99.90;;;;;;5004410;28;20233;-30
2022/11/21 03:38:28;;;;;;;4.73;2.40;;;9.10;99.90;;;;;;5015006;28;20263;-29
2022/11/21 03:40:57;;;;;;;8.07;2.50;;;9.00;99.90;;;;;;5024771;28;20756;-30
2022/11/21 03:43:24;;;;;;;8.20;2.17;;;9.10;99.90;;;;;;5011739;28;20205;-30
2022/11/21 03:45:51;;;;;;;7.63;2.53;;;9.10;99.90;;;;;;5005472;28;20209;-30
2022/11/21 03:48:18;;;;;;;7.57;2.40;;;9.10;99.90;;;;;;5009065;28;20294;-30
2022/11/21 03:50:47;;;;;;;6.23;2.07;;;9.10;99.90;;;;;;5005480;28;20225;-30
2022/11/21 03:53:18;;;;;;;5.83;2.27;;;9.10;99.90;;;;;;5001406;28;20240;-30
2022/11/21 03:55:49;;;;;;;4.47;1.67;;;9.10;99.90;;;;;;5005484;28;20275;-29
2022/11/21 03:58:16;;;;;;;10.20;2.50;;;9.10;99.90;;;;;;5007470;28;20303;-30
2022/11/21 04:00:43;;;;;;;5.37;2.20;;;9.10;99.90;;;;;;5024710;28;20228;-30
2022/11/21 04:03:13;;;;;;;6.33;2.03;;;9.00;99.90;;;;;;5021097;28;20213;-30
2022/11/21 04:05:40;;;;;;;6.00;1.83;;;9.00;99.90;;;;;;4990443;28;20210;-30
2022/11/21 04:08:07;;;;;;;5.27;2.07;;;9.00;99.90;;;;;;5019091;28;20375;-30
2022/11/21 04:10:37;;;;;;;5.10;1.87;;;9.00;99.90;;;;;;5003580;28;20557;-30
2022/11/21 04:13:07;;;;;;;4.47;2.00;;;9.00;99.90;;;;;;5007945;28;20202;-30
2022/11/21 04:15:34;;;;;;;4.33;1.83;;;9.00;99.90;;;;;;5009067;28;20194;-30
2022/11/21 04:18:03;;;;;;;4.53;1.83;;;9.00;99.90;;;;;;5022698;28;20206;-30
2022/11/21 04:20:30;;;;;;;8.93;2.13;;;9.00;99.90;;;;;;5007602;28;20217;-30
2022/11/21 04:22:57;;;;;;;6.47;1.93;;;9.00;99.90;;;;;;5007051;28;20213;-30
2022/11/21 04:25:29;;;;;;;5.87;1.87;;;9.00;99.90;;;;;;5006397;28;20206;-30
2022/11/21 04:27:59;;;;;;;6.20;1.80;;;8.90;99.90;;;;;;5027076;28;20711;-30
2022/11/21 04:30:27;;;;;;;12.67;2.47;;;9.00;99.90;;;;;;5009904;28;20206;-30
2022/11/21 04:32:55;;;;;;;5.50;2.23;;;8.90;99.90;;;;;;5008037;28;20281;-30
2022/11/21 04:35:25;;;;;;;5.50;2.10;;;8.90;99.90;;;;;;5020032;28;20247;-30
2022/11/21 04:37:52;;;;;;;5.03;2.60;;;8.90;99.90;;;;;;5022570;28;20673;-30
2022/11/21 04:40:20;;;;;;;5.30;2.20;;;8.90;99.90;;;;;;5010051;28;20727;-30
2022/11/21 04:42:47;;;;;;;6.40;2.47;;;8.90;99.90;;;;;;5006137;28;20209;-29
2022/11/21 04:45:15;;;;;;;5.87;2.77;;;8.90;99.90;;;;;;5008423;28;20206;-30
2022/11/21 04:47:45;;;;;;;5.67;2.33;;;8.90;99.90;;;;;;5009820;28;20264;-30
2022/11/21 04:50:14;;;;;;;6.43;2.60;;;8.90;99.90;;;;;;5004837;28;20318;-29
2022/11/21 04:52:47;;;;;;;9.47;2.50;;;8.80;99.90;;;;;;5007066;28;20221;-30
2022/11/21 04:55:14;;;;;;;4.43;2.60;;;8.90;99.90;;;;;;5007626;28;20292;-30
2022/11/21 04:57:44;;;;;;;6.93;2.73;;;8.80;99.90;;;;;;5013810;28;20314;-30
2022/11/21 05:00:12;;;;;;;7.27;2.50;;;8.80;99.90;;;;;;5001334;28;20285;-30
2022/11/21 05:02:39;;;;;;;6.57;2.67;;;8.80;99.90;;;;;;5019025;28;20308;-29
2022/11/21 05:05:10;;;;;;;5.37;2.43;;;8.80;99.90;;;;;;5014288;28;20244;-30
2022/11/21 05:07:40;;;;;;;6.17;2.53;;;8.80;99.90;;;;;;5008215;28;20240;-30
2022/11/21 05:10:09;;;;;;;6.63;2.50;;;8.80;99.90;;;;;;5006102;28;20214;-30
2022/11/21 05:15:23;;;;;;;10.73;3.07;;;8.80;99.90;;;;;;5008143;28;20228;-30
2022/11/21 05:17:58;;;;;;;8.77;2.50;;;8.80;99.90;;;;;;5013894;28;20318;-30
2022/11/21 05:20:30;;;;;;;6.77;2.53;;;8.80;99.90;;;;;;5003771;28;20264;-30
2022/11/21 05:23:03;;;;;;;6.90;2.67;;;8.80;99.90;;;;;;5007348;28;20755;-30
2022/11/21 05:25:37;;;;;;;5.40;2.60;;;8.80;99.90;;;;;;5007631;28;20234;-30
2022/11/21 05:28:06;;;;;;;5.77;2.40;;;8.80;99.90;;;;;;5012989;28;20240;-30
2022/11/21 05:30:36;;;;;;;6.83;2.10;;;8.80;99.90;;;;;;5023480;28;20219;-30
2022/11/21 05:33:06;;;;;;;8.50;2.50;;;8.80;99.90;;;;;;5022968;28;20289;-30
2022/11/21 05:35:37;;;;;;;7.20;2.40;;;8.80;99.90;;;;;;5022689;28;21127;-30
2022/11/21 05:38:09;;;;;;;8.07;2.47;;;8.80;99.90;;;;;;5027290;28;20212;-30
2022/11/21 05:40:36;;;;;;;3.90;2.03;;;8.80;99.90;;;;;;5007237;28;20316;-30
2022/11/21 05:45:57;;;;;;;8.17;2.23;;;8.80;99.90;;;;;;5025754;28;20200;-30
2022/11/21 05:48:24;;;;;;;6.97;2.00;;;8.80;99.90;;;;;;5008495;28;20272;-29
2022/11/21 05:50:56;;;;;;;7.23;3.27;;;8.70;99.90;;;;;;5012457;28;20724;-30
2022/11/21 05:53:25;;;;;;;6.67;2.30;;;8.70;99.90;;;;;;5002200;28;20688;-30
2022/11/21 05:55:55;;;;;;;6.73;2.30;;;8.70;99.90;;;;;;4998802;28;20226;-30
2022/11/21 05:58:24;;;;;;;7.07;2.20;;;8.70;99.90;;;;;;5021335;28;20279;-30
2022/11/21 06:00:56;;;;;;;5.23;2.00;;;8.70;99.90;;;;;;5003875;28;20289;-29
2022/11/21 06:03:31;;;;;;;7.17;2.60;;;8.70;99.90;;;;;;5021073;28;20295;-30
2022/11/21 06:06:12;;;;;;;6.33;2.73;;;8.70;99.90;;;;;;5025248;28;20213;-30
2022/11/21 06:08:42;;;;;;;5.27;2.17;;;8.70;99.90;;;;;;4999632;28;20323;-30
2022/11/21 06:11:15;;;;;;;7.33;2.30;;;8.70;99.90;;;;;;5004907;28;20238;-30
2022/11/21 06:13:42;;;;;;;7.30;2.57;;;8.60;99.90;;;;;;5004632;28;20579;-30
2022/11/21 06:16:12;;;;;;;9.77;2.37;;;8.70;99.90;;;;;;5019829;28;20676;-30
2022/11/21 06:18:42;;;;;;;9.73;2.27;;;8.60;99.90;;;;;;5017224;28;20692;-30
2022/11/21 06:21:24;;;;;;;7.17;2.33;;;8.60;99.90;;;;;;5009936;28;20208;-30
2022/11/21 06:23:54;;;;;;;6.70;2.17;;;8.60;99.90;;;;;;5007542;28;20220;-30
2022/11/21 06:26:25;;;;;;;8.07;1.83;;;8.60;99.90;;;;;;5003291;28;20617;-30
2022/11/21 06:28:58;;;;;;;6.07;2.07;;;8.60;99.90;;;;;;5007515;28;20225;-30
2022/11/21 06:31:30;;;;;;;8.90;2.10;;;8.60;99.90;;;;;;5004818;28;20221;-30
2022/11/21 06:34:00;;;;;;;5.80;2.07;;;8.60;99.90;;;;;;5004947;28;20209;-30
2022/11/21 06:36:27;;;;;;;4.87;1.90;;;8.60;99.90;;;;;;5023218;28;20757;-30
2022/11/21 06:38:57;;;;;;;6.37;1.83;;;8.50;99.90;;;;;;5022690;28;20217;-30
2022/11/21 06:41:30;;;;;;;7.97;1.93;;;8.60;99.90;;;;;;5016767;28;20293;-30
2022/11/21 06:44:01;;;;;;;4.77;1.70;;;8.50;99.90;;;;;;5011988;28;20976;-30
2022/11/21 06:46:31;;;;;;;7.97;2.40;;;8.50;99.90;;;;;;5001997;28;20293;-30
2022/11/21 06:49:00;;;;;;;4.20;1.97;;;8.50;99.90;;;;;;4990604;28;20237;-30
2022/11/21 06:51:27;;;;;;;7.50;2.70;;;8.40;99.90;;;;;;4999446;28;20217;-30
2022/11/21 06:53:57;;;;;;;15.87;3.00;;;8.40;99.90;;;;;;5003039;28;20669;-30
2022/11/21 06:56:28;;;;;;;10.03;2.80;;;8.30;99.90;;;;;;4994306;28;20276;-30
2022/11/21 06:59:00;;;;;;;5.73;2.20;;;8.30;99.90;;;;;;5016713;28;20686;-30
2022/11/21 07:01:27;;;;;;;8.17;2.17;;;8.30;99.90;;;;;;5009046;28;20205;-30
2022/11/21 07:03:57;;;;;;;9.53;2.93;;;8.20;99.90;;;;;;5009067;28;20213;-30
2022/11/21 07:06:28;;;;;;;8.50;2.23;;;8.20;99.90;;;;;;5003237;28;20259;-30
2022/11/21 07:08:57;;;;;;;10.27;2.50;;;8.20;99.90;;;;;;5005452;28;20331;-30
2022/11/21 07:11:46;;;;;;;8.20;2.20;;;8.10;99.90;;;;;;5013208;28;20580;-30
2022/11/21 07:14:16;;;;;;;6.70;2.10;;;8.10;99.90;;;;;;5011414;28;20217;-30
2022/11/21 07:16:43;;;;;;;6.77;2.63;;;8.10;99.90;;;;;;5012571;28;20232;-30
2022/11/21 07:19:10;;;;;;;4.93;2.17;;;8.00;99.90;;;;;;5012154;28;20201;-30
2022/11/21 07:21:41;;;;;;;5.30;2.10;;;8.00;99.90;;;;;;5003975;28;20216;-30
2022/11/21 07:24:09;;;;;;;7.60;2.60;;;8.00;99.90;;;;;;5015160;28;20782;-30
2022/11/21 07:26:38;;;;;;;4.70;2.27;;;8.00;99.90;;;;;;5019092;28;20209;-30
2022/11/21 07:29:07;;;;;;;14.47;2.80;;;7.90;99.90;;;;;;4994119;28;20319;-30
2022/11/21 07:31:39;;;;;;;7.63;2.80;;;7.90;99.90;;;;;;5000859;28;20379;-30
2022/11/21 07:34:08;;;;;;;12.00;3.17;;;7.90;99.90;;;;;;5007710;28;20307;-30
2022/11/21 07:36:37;;;;;;;10.97;3.30;;;7.80;99.90;;;;;;5000648;28;20778;-30
2022/11/21 07:39:07;;;;;;;12.17;3.53;;;7.80;99.90;;;;;;5005462;28;20300;-30
2022/11/21 07:41:34;;;;;;;12.87;3.57;;;7.80;99.90;;;;;;5004613;28;20287;-30
2022/11/21 07:44:04;;;;;;;7.30;3.50;;;7.80;99.90;;;;;;5015322;28;20228;-30
2022/11/21 07:46:35;;;;;;;10.43;4.03;;;7.80;99.90;;;;;;5002418;28;20205;-30
2022/11/21 07:49:02;;;;;;;11.50;3.90;;;7.70;99.90;;;;;;5017927;28;20314;-30
2022/11/21 07:51:34;;;;;;;9.17;4.07;;;7.70;99.90;;;;;;5017848;28;20202;-30
2022/11/21 07:54:06;;;;;;;11.53;3.67;;;7.70;99.90;;;;;;5001772;28;20570;-30
2022/11/21 07:56:33;;;;;;;10.20;3.83;;;7.70;99.90;;;;;;5005916;28;20706;-30
2022/11/21 07:59:03;;;;;;;18.40;4.43;;;7.70;99.90;;;;;;5017719;28;20733;-30
2022/11/21 08:01:30;;;;;;;10.17;3.43;;;7.70;99.90;;;;;;5012604;28;20591;-31
2022/11/21 08:04:00;;;;;;;8.43;3.00;;;7.70;99.90;;;;;;5004718;28;20208;-30
2022/11/21 08:06:31;;;;;;;8.83;3.20;;;7.70;99.90;;;;;;5006104;28;20218;-30
2022/11/21 08:09:01;;;;;;;9.90;2.77;;;7.70;99.90;;;;;;5018398;28;20219;-30
2022/11/21 08:11:31;;;;;;;7.03;2.83;;;7.60;99.90;;;;;;5004352;28;20860;-30
2022/11/21 08:14:00;;;;;;;7.50;2.83;;;7.60;99.90;;;;;;5007832;28;20675;-30
2022/11/21 08:16:31;;;;;;;7.77;3.27;;;7.60;99.90;;;;;;5010829;28;20196;-30
2022/11/21 08:19:01;;;;;;;12.93;3.40;;;7.60;99.90;;;;;;5009704;28;20222;-30
2022/11/21 08:21:32;;;;;;;10.53;3.23;;;7.60;99.90;;;;;;4988860;28;21078;-30
2022/11/21 08:24:02;;;;;;;10.60;3.17;;;7.70;99.90;;;;;;5011980;28;20225;-31
2022/11/21 08:26:33;;;;;;;9.47;3.30;;;7.60;99.90;;;;;;5007676;28;20198;-30
2022/11/21 08:29:03;;;;;;;8.57;2.97;;;7.60;99.90;;;;;;5025405;28;20692;-30
2022/11/21 08:31:30;;;;;;;8.90;2.83;;;7.60;99.90;;;;;;5028219;28;20270;-30
2022/11/21 08:33:57;;;;;;;12.03;2.87;;;7.60;99.90;;;;;;5010850;28;20275;-30
2022/11/21 08:36:24;;;;;;;6.50;2.50;;;7.70;99.90;;;;;;5009760;28;20209;-30
2022/11/21 08:38:56;;;;;;;5.53;2.33;;;7.70;99.90;;;;;;5026401;28;20193;-31
2022/11/21 08:44:09;;;;;;;12.40;3.33;;;7.60;99.90;;;;;;5018408;28;20256;-30
2022/11/21 08:46:40;;;;;;;10.77;2.50;;;7.70;99.90;;;;;;5006301;28;20707;-30
2022/11/21 08:49:08;;;;;;;7.70;2.53;;;7.70;99.90;;;;;;5012857;28;20279;-30
2022/11/21 08:51:35;;;;;;;9.87;3.00;;;7.70;99.90;;;;;;5027688;28;20193;-30
2022/11/21 08:54:05;;;;;;;7.50;2.57;;;7.70;99.90;;;;;;4984367;28;20207;-30
2022/11/21 08:56:32;;;;;;;11.17;2.70;;;7.70;99.90;;;;;;4993272;28;20208;-30
2022/11/21 08:59:00;;;;;;;8.90;2.40;;;7.80;99.90;;;;;;4995774;28;20209;-30
2022/11/21 09:01:27;;;;;;;5.23;2.20;;;7.80;99.90;;;;;;5021153;28;20210;-30
2022/11/21 09:03:54;;;;;;;6.10;2.83;;;7.80;99.90;;;;;;5016489;28;20255;-30
2022/11/21 09:06:23;;;;;;;6.90;2.63;;;7.80;99.90;;;;;;5012615;28;20276;-30
2022/11/21 09:08:51;;;;;;;10.10;2.77;;;7.80;99.90;;;;;;5004179;28;20320;-30
2022/11/21 09:11:21;;;;;;;6.33;2.83;;;7.90;99.90;;;;;;5009047;28;20260;-30
2022/11/21 09:18:01;;;;;;;10.80;3.30;;;7.90;99.90;;;;;;5007001;28;20564;-30
2022/11/21 09:19:30;;;;;;;6.33;3.33;;;8.00;99.90;;;;;;4996097;28;20703;-30
2022/11/21 09:22:00;;;;;;;8.77;3.57;;;8.10;99.90;;;;;;5014142;28;20251;-30
2022/11/21 09:24:32;;;;;;;9.70;3.53;;;8.10;99.90;;;;;;5025889;28;20248;-31
2022/11/21 09:26:59;;;;;;;7.50;3.40;;;8.10;99.90;;;;;;5026703;28;20333;-30
2022/11/21 09:29:26;;;;;;;7.50;3.73;;;8.20;99.90;;;;;;5032755;28;20236;-30
2022/11/21 09:31:54;;;;;;;8.03;3.53;;;8.20;99.90;;;;;;5005866;28;20209;-30
2022/11/21 09:34:24;;;;;;;8.40;3.57;;;8.20;99.90;;;;;;5011447;28;20205;-30
2022/11/21 09:36:55;;;;;;;9.53;3.60;;;8.30;99.90;;;;;;5025489;28;20635;-31
2022/11/21 09:39:24;;;;;;;8.50;3.83;;;8.30;99.90;;;;;;5015114;28;20217;-30
2022/11/21 09:42:32;;;;;;;9.10;3.30;;;8.30;99.90;;;;;;5024702;28;20380;-30
2022/11/21 09:45:10;;;;;;;11.40;3.90;;;8.30;99.90;;;;;;5026151;28;20201;-30
2022/11/21 09:47:49;;;;;;;5.30;3.17;;;8.40;99.90;;;;;;5008901;28;20314;-30
2022/11/21 09:50:34;;;;;;;13.47;4.03;;;8.40;99.90;;;;;;5025047;28;20687;-30
2022/11/21 09:53:17;;;;;;;6.90;3.30;;;8.50;99.90;;;;;;5026300;28;20197;-30
2022/11/21 09:55:54;;;;;;;8.27;3.70;;;8.50;99.90;;;;;;5025247;28;20283;-30
2022/11/21 09:58:39;;;;;;;7.57;4.00;;;8.50;99.90;;;;;;5023937;28;20562;-30
2022/11/21 10:01:11;;;;;;;6.40;3.23;;;8.60;99.90;;;;;;5015820;28;20213;-30
2022/11/21 10:03:45;;;;;;;9.30;3.80;;;8.60;99.90;;;;;;5005333;28;20209;-30
2022/11/21 10:06:19;;;;;;;8.57;3.50;;;8.70;99.90;;;;;;4997664;28;20603;-30
2022/11/21 10:09:15;;;;;;;7.47;3.20;;;8.70;99.90;;;;;;5001991;28;20226;-30
2022/11/21 10:14:55;;;;;;;7.83;3.23;;;8.80;99.90;;;;;;4988921;28;20233;-30
2022/11/21 10:17:41;;;;;;;9.20;3.30;;;8.80;99.90;;;;;;5004837;28;20704;-30
2022/11/21 10:20:59;;;;;;;10.07;3.63;;;8.90;99.90;;;;;;4996603;28;20296;-30
2022/11/21 10:23:45;;;;;;;7.40;3.30;;;9.00;99.90;;;;;;5013473;28;20217;-30
2022/11/21 10:26:26;;;;;;;8.27;3.57;;;9.00;99.90;;;;;;5019491;28;20524;-30
2022/11/21 10:29:17;;;;;;;8.50;3.50;;;9.10;99.90;;;;;;5012650;28;20316;-30
2022/11/21 10:31:45;;;;;;;6.77;2.93;;;9.20;99.90;;;;;;4998842;28;20202;-30
2022/11/21 10:34:20;;;;;;;6.33;3.50;;;9.20;99.90;;;;;;5007823;28;20604;-30
2022/11/21 10:36:52;;;;;;;8.63;4.50;;;9.30;99.90;;;;;;5021922;28;20258;-30
2022/11/21 10:39:32;;;;;;;5.13;4.17;;;9.30;99.90;;;;;;5020903;28;20204;-30
2022/11/21 10:42:37;;;;;;;7.67;4.70;;;9.40;99.90;;;;;;5003543;28;20275;-30
2022/11/21 10:45:16;;;;;;;9.73;4.40;;;9.50;99.90;;;;;;5012865;28;20206;-30
2022/11/21 10:47:45;;;;;;;7.57;5.00;;;9.50;99.90;;;;;;5003857;28;20734;-30
2022/11/21 10:50:34;;;;;;;7.80;4.67;;;9.60;99.90;;;;;;5006644;28;20222;-30
2022/11/21 10:56:00;;;;;;;8.00;4.53;;;9.70;99.90;;;;;;5016990;28;20581;-29
2022/11/21 10:58:35;;;;;;;9.77;4.60;;;9.70;99.90;;;;;;5023636;28;20211;-29
2022/11/21 11:01:06;;;;;;;6.63;4.43;;;9.70;99.90;;;;;;5011114;28;20217;-29
2022/11/21 11:03:39;;;;;;;6.70;3.90;;;9.70;99.90;;;;;;4991045;28;20200;-29
2022/11/21 11:06:06;;;;;;;8.33;3.63;;;9.70;99.90;;;;;;5009274;28;20223;-29
2022/11/21 11:08:51;;;;;;;5.53;3.87;;;9.80;99.90;;;;;;5011397;28;20232;-29
2022/11/21 11:11:30;;;;;;;8.87;3.80;;;9.80;99.90;;;;;;5000823;28;20198;-29
2022/11/21 11:14:01;;;;;;;6.97;3.70;;;9.80;99.90;;;;;;5004321;28;20216;-29
2022/11/21 11:16:30;;;;;;;7.17;3.80;;;9.80;99.90;;;;;;5003375;28;20590;-30
2022/11/21 11:19:15;;;;;;;8.87;3.73;;;9.80;99.90;;;;;;5008309;28;20279;-30
2022/11/21 11:21:46;;;;;;;8.57;3.90;;;9.80;99.90;;;;;;5006084;28;20200;-30
2022/11/21 11:24:16;;;;;;;7.40;4.30;;;9.80;99.90;;;;;;5005883;28;20336;-30
2022/11/21 11:26:46;;;;;;;11.10;4.00;;;9.90;99.90;;;;;;5003918;28;20656;-30
2022/11/21 11:29:19;;;;;;;6.07;3.60;;;9.90;99.90;;;;;;5017780;28;20760;-30
2022/11/21 11:31:58;;;;;;;8.37;3.97;;;9.90;99.90;;;;;;4999849;28;20252;-30
2022/11/21 11:34:56;;;;;;;7.40;3.67;;;9.90;99.90;;;;;;5014243;28;20227;-30
2022/11/21 11:37:34;;;;;;;8.20;3.70;;;10.00;99.90;;;;;;4996585;28;20219;-30
2022/11/21 11:40:25;;;;;;;8.17;3.40;;;10.00;99.90;;;;;;5003496;28;20721;-30
2022/11/21 11:50:09;;;;;;;9.53;3.93;;;10.10;99.90;;;;;;4997842;28;20238;-30
2022/11/21 11:52:24;;;;;;;8.33;3.87;;;10.20;99.90;;;;;;5009047;28;20532;-30
2022/11/21 11:55:01;;;;;;;8.60;3.93;;;10.20;99.90;;;;;;5001962;28;20684;-30
2022/11/21 11:57:33;;;;;;;8.83;4.37;;;10.20;99.90;;;;;;5013441;28;20733;-30
2022/11/21 12:00:33;;;;;;;10.10;4.30;;;10.30;99.90;;;;;;5003787;28;20225;-30
2022/11/21 12:03:12;;;;;;;8.03;4.20;;;10.30;99.90;;;;;;5000814;28;20233;-30
2022/11/21 12:06:14;;;;;;;6.27;3.67;;;10.30;99.90;;;;;;4996441;28;20308;-30
2022/11/21 12:09:01;;;;;;;11.07;4.37;;;10.40;99.90;;;;;;4995147;28;20244;-30
2022/11/21 12:12:08;;;;;;;10.73;4.07;;;10.40;99.90;;;;;;4992620;28;20205;-30
2022/11/21 12:17:47;;;;;;;8.10;4.03;;;10.50;99.90;;;;;;5000445;28;20194;-30
2022/11/21 12:20:45;;;;;;;10.17;4.30;;;10.50;99.90;;;;;;5004468;28;20217;-30
2022/11/21 12:23:14;;;;;;;9.97;4.30;;;10.50;99.90;;;;;;4988279;28;20293;-30
2022/11/21 12:25:58;;;;;;;10.30;4.00;;;10.60;99.90;;;;;;5007323;28;20252;-30
2022/11/21 12:28:46;;;;;;;8.47;3.80;;;10.60;99.90;;;;;;5000810;28;20683;-30
2022/11/21 12:31:31;;;;;;;8.60;3.83;;;10.60;99.90;;;;;;5001899;28;20220;-30
2022/11/21 12:34:26;;;;;;;11.03;3.63;;;10.70;99.90;;;;;;5015909;28;20202;-30
2022/11/21 12:37:06;;;;;;;8.27;3.50;;;10.70;99.90;;;;;;4999256;28;20752;-30
2022/11/21 12:39:55;;;;;;;9.13;3.77;;;10.80;99.90;;;;;;5016234;28;20240;-29
2022/11/21 12:42:48;;;;;;;14.57;4.83;;;10.80;99.90;;;;;;4999782;28;20224;-30
2022/11/21 12:45:27;;;;;;;8.93;3.53;;;10.80;99.90;;;;;;5010629;28;20201;-30
2022/11/21 12:54:32;;;;;;;13.77;4.00;;;10.80;99.90;;;;;;4988897;28;20205;-30
2022/11/21 12:57:11;;;;;;;11.43;3.93;;;10.90;99.90;;;;;;5007319;28;20692;-29
2022/11/21 12:59:56;;;;;;;9.43;4.17;;;10.90;99.90;;;;;;5002152;28;20205;-30
2022/11/21 13:02:48;;;;;;;8.03;3.70;;;10.90;99.90;;;;;;5001199;28;20265;-30
2022/11/21 13:05:31;;;;;;;10.17;3.90;;;10.90;99.90;;;;;;4996766;28;20779;-30
2022/11/21 13:08:10;;;;;;;7.57;3.37;;;10.90;99.90;;;;;;5001691;28;20209;-30
2022/11/21 13:13:55;;;;;;;12.77;3.70;;;10.90;99.90;;;;;;5002352;28;20206;-30
2022/11/21 13:16:37;;;;;;;9.43;3.63;;;11.00;99.90;;;;;;5001516;28;20210;-30
2022/11/21 13:19:22;;;;;;;11.60;3.30;;;11.00;99.90;;;;;;5000447;28;20217;-30
2022/11/21 13:21:52;;;;;;;9.53;3.70;;;11.00;99.90;;;;;;4995747;28;20214;-30
2022/11/21 13:24:55;;;;;;;13.80;4.20;;;11.10;99.90;;;;;;5005592;28;20213;-29
2022/11/21 13:27:28;;;;;;;6.87;3.17;;;11.10;99.90;;;;;;5005419;28;20205;-30
2022/11/21 13:30:06;;;;;;;10.40;3.27;;;11.10;99.90;;;;;;5004266;28;20628;-30
2022/11/21 13:32:51;;;;;;;9.27;3.40;;;11.10;99.90;;;;;;5007003;28;20682;-29
2022/11/21 13:35:18;;;;;;;7.73;2.90;;;11.10;99.90;;;;;;4998052;28;20771;-29
2022/11/21 13:37:54;;;;;;;9.53;3.30;;;11.10;99.90;;;;;;5003621;28;20225;-30
2022/11/21 13:40:29;;;;;;;9.67;4.50;;;11.10;99.90;;;;;;4998148;28;20217;-30
2022/11/21 13:43:21;;;;;;;7.93;3.70;;;11.10;99.90;;;;;;5004205;28;20284;-30
2022/11/21 13:46:02;;;;;;;9.40;3.63;;;11.20;99.90;;;;;;4997699;28;20300;-30
2022/11/21 13:48:29;;;;;;;12.30;4.00;;;11.20;99.90;;;;;;5003634;28;20237;-30
2022/11/21 13:51:09;;;;;;;7.73;3.30;;;11.20;99.90;;;;;;5014643;28;20242;-30
2022/11/21 13:54:14;;;;;;;6.83;2.47;;;11.20;99.90;;;;;;5004374;28;20202;-30
2022/11/21 13:57:23;;;;;;;6.60;2.50;;;11.20;99.90;;;;;;5004966;28;20712;-30
2022/11/21 14:00:22;;;;;;;10.40;2.57;;;11.10;99.90;;;;;;5002554;28;20694;-30
2022/11/21 14:03:01;;;;;;;6.57;2.27;;;11.10;99.90;;;;;;5001938;28;20267;-30